createdAt,value
2023-02-16T00:00:21.251Z,-0.61
2023-02-16T00:02:48.629Z,-0.72
2023-02-16T00:05:36.434Z,-0.90
2023-02-16T00:08:03.059Z,-1.05
2023-02-16T00:10:35.222Z,-1.16
2023-02-16T00:13:21.415Z,-1.28
2023-02-16T00:15:47.971Z,-1.36
2023-02-16T00:18:21.604Z,-1.42
2023-02-16T00:20:54.632Z,-1.48
2023-02-16T00:23:21.417Z,-1.52
2023-02-16T00:25:47.989Z,-1.51
2023-02-16T00:28:22.509Z,-1.54
2023-02-16T00:30:50.650Z,-1.52
2023-02-16T00:33:19.682Z,-1.46
2023-02-16T00:35:56.094Z,-1.38
2023-02-16T00:38:26.282Z,-1.26
2023-02-16T00:40:52.758Z,-1.27
2023-02-16T00:43:26.187Z,-1.24
2023-02-16T00:45:53.509Z,-1.14
2023-02-16T00:48:20.341Z,-1.08
2023-02-16T00:50:53.607Z,-1.05
2023-02-16T00:53:20.202Z,-1.11
2023-02-16T00:55:46.760Z,-1.11
2023-02-16T00:58:26.489Z,-1.12
2023-02-16T01:00:55.912Z,-1.15
2023-02-16T01:03:28.386Z,-1.20
2023-02-16T01:06:14.639Z,-1.17
2023-02-16T01:09:02.881Z,-1.27
2023-02-16T01:11:29.805Z,-1.35
2023-02-16T01:13:57.261Z,-1.42
2023-02-16T01:16:27.816Z,-1.43
2023-02-16T01:18:56.340Z,-1.52
2023-02-16T01:21:22.892Z,-1.59
2023-02-16T01:23:51.640Z,-1.71
2023-02-16T01:26:20.208Z,-1.81
2023-02-16T01:28:47.568Z,-1.91
2023-02-16T01:31:19.493Z,-1.97
2023-02-16T01:33:46.040Z,-2.00
2023-02-16T01:36:44.852Z,-1.98
2023-02-16T01:39:17.535Z,-1.98
2023-02-16T01:42:29.751Z,-1.93
2023-02-16T01:45:01.671Z,-1.92
2023-02-16T01:47:36.505Z,-1.92
2023-02-16T01:50:17.751Z,-1.96
2023-02-16T01:52:55.457Z,-1.95
2023-02-16T01:55:37.281Z,-1.85
2023-02-16T01:58:12.888Z,-1.87
2023-02-16T02:00:54.800Z,-1.88
2023-02-16T02:04:03.072Z,-1.89
2023-02-16T02:06:34.624Z,-1.90
2023-02-16T02:09:10.841Z,-1.90
2023-02-16T02:11:45.505Z,-1.88
2023-02-16T02:14:17.851Z,-1.86
2023-02-16T02:17:07.352Z,-1.89
2023-02-16T02:19:47.686Z,-1.96
2023-02-16T02:22:41.804Z,-2.02
2023-02-16T02:25:30.538Z,-2.06
2023-02-16T02:28:15.051Z,-2.09
2023-02-16T02:30:53.662Z,-2.15
2023-02-16T02:33:37.608Z,-2.20
2023-02-16T02:36:28.936Z,-2.20
2023-02-16T02:39:19.801Z,-2.21
2023-02-16T02:42:12.770Z,-2.22
2023-02-16T02:44:46.902Z,-2.20
2023-02-16T02:47:13.695Z,-2.26
2023-02-16T02:49:42.229Z,-2.26
2023-02-16T02:52:09.126Z,-2.28
2023-02-16T02:54:59.169Z,-2.32
2023-02-16T02:57:52.056Z,-2.41
2023-02-16T03:00:44.484Z,-2.44
2023-02-16T03:03:18.597Z,-2.46
2023-02-16T03:05:55.373Z,-2.38
2023-02-16T03:08:25.313Z,-2.35
2023-02-16T03:11:18.591Z,-2.38
2023-02-16T03:13:51.474Z,-2.43
2023-02-16T03:16:26.413Z,-2.38
2023-02-16T03:19:14.932Z,-2.38
2023-02-16T03:22:01.324Z,-2.37
2023-02-16T03:24:49.673Z,-2.35
2023-02-16T03:27:42.334Z,-2.39
2023-02-16T03:30:12.728Z,-2.40
2023-02-16T03:32:39.780Z,-2.40
2023-02-16T03:35:07.397Z,-2.41
2023-02-16T03:37:34.336Z,-2.41
2023-02-16T03:40:20.199Z,-2.42
2023-02-16T03:42:50.634Z,-2.46
2023-02-16T03:45:20.689Z,-2.48
2023-02-16T03:47:47.533Z,-2.52
2023-02-16T03:50:14.017Z,-2.55
2023-02-16T03:52:40.691Z,-2.52
2023-02-16T03:55:09.626Z,-2.52
2023-02-16T03:57:36.252Z,-2.54
2023-02-16T04:00:03.121Z,-2.54
2023-02-16T04:02:30.316Z,-2.51
2023-02-16T04:04:56.868Z,-2.54
2023-02-16T04:07:23.940Z,-2.56
2023-02-16T04:09:52.180Z,-2.58
2023-02-16T04:12:37.008Z,-2.57
2023-02-16T04:15:06.873Z,-2.61
2023-02-16T04:17:33.454Z,-2.64
2023-02-16T04:20:01.699Z,-2.68
2023-02-16T04:22:30.405Z,-2.71
2023-02-16T04:24:56.962Z,-2.74
2023-02-16T04:27:23.609Z,-2.81
2023-02-16T04:29:50.261Z,-2.78
2023-02-16T04:32:17.070Z,-2.74
2023-02-16T04:34:43.596Z,-2.72
2023-02-16T04:37:12.311Z,-2.68
2023-02-16T04:39:38.812Z,-2.68
2023-02-16T04:42:05.500Z,-2.69
2023-02-16T04:44:32.160Z,-2.70
2023-02-16T04:46:58.652Z,-2.69
2023-02-16T04:49:25.203Z,-2.69
2023-02-16T04:52:00.282Z,-2.66
2023-02-16T04:54:27.919Z,-2.67
2023-02-16T04:56:54.786Z,-2.71
2023-02-16T04:59:23.337Z,-2.75
2023-02-16T05:01:50.212Z,-2.81
2023-02-16T05:04:16.802Z,-2.88
2023-02-16T05:06:43.401Z,-2.97
2023-02-16T05:09:11.812Z,-3.03
2023-02-16T05:11:57.196Z,-3.08
2023-02-16T05:14:45.436Z,-3.11
2023-02-16T05:17:25.300Z,-3.11
2023-02-16T05:19:55.033Z,-3.04
2023-02-16T05:22:22.082Z,-2.97
2023-02-16T05:24:49.425Z,-2.95
2023-02-16T05:27:20.719Z,-3.01
2023-02-16T05:29:54.645Z,-3.08
2023-02-16T05:32:21.876Z,-3.12
2023-02-16T05:34:48.524Z,-3.15
2023-02-16T05:37:19.159Z,-3.19
2023-02-16T05:39:45.749Z,-3.16
2023-02-16T05:42:12.558Z,-3.29
2023-02-16T05:44:41.361Z,-3.38
2023-02-16T05:47:07.988Z,-3.39
2023-02-16T05:49:34.649Z,-3.43
2023-02-16T05:52:02.035Z,-3.47
2023-02-16T05:54:28.714Z,-3.45
2023-02-16T05:56:55.386Z,-3.43
2023-02-16T05:59:23.716Z,-3.32
2023-02-16T06:01:52.173Z,-3.19
2023-02-16T06:04:20.506Z,-3.21
2023-02-16T06:06:47.643Z,-3.17
2023-02-16T06:09:14.379Z,-3.17
2023-02-16T06:11:40.903Z,-3.12
2023-02-16T06:14:09.568Z,-3.09
2023-02-16T06:16:38.374Z,-3.11
2023-02-16T06:19:05.850Z,-3.12
2023-02-16T06:21:35.286Z,-3.12
2023-02-16T06:24:02.092Z,-3.12
2023-02-16T06:26:30.955Z,-3.15
2023-02-16T06:28:59.230Z,-3.15
2023-02-16T06:31:26.138Z,-3.12
2023-02-16T06:33:53.650Z,-3.09
2023-02-16T06:36:24.547Z,-3.10
2023-02-16T06:38:51.224Z,-3.09
2023-02-16T06:41:33.365Z,-3.03
2023-02-16T06:44:07.248Z,-3.02
2023-02-16T06:46:36.376Z,-2.98
2023-02-16T06:49:07.247Z,-2.98
2023-02-16T06:51:34.165Z,-2.99
2023-02-16T06:54:02.470Z,-3.01
2023-02-16T06:56:29.099Z,-2.98
2023-02-16T06:58:55.916Z,-2.96
2023-02-16T07:01:26.300Z,-3.00
2023-02-16T07:03:54.472Z,-2.92
2023-02-16T07:06:23.221Z,-2.83
2023-02-16T07:08:50.495Z,-2.79
2023-02-16T07:11:17.720Z,-2.80
2023-02-16T07:13:44.200Z,-2.80
2023-02-16T07:16:11.209Z,-2.67
2023-02-16T07:18:37.869Z,-2.48
2023-02-16T07:21:04.989Z,-2.32
2023-02-16T07:23:31.878Z,-2.20
2023-02-16T07:25:58.484Z,-2.18
2023-02-16T07:28:27.343Z,-2.10
2023-02-16T07:30:54.024Z,-2.04
2023-02-16T07:36:13.168Z,-1.96
2023-02-16T07:38:42.020Z,-1.77
2023-02-16T07:41:09.893Z,-1.46
2023-02-16T07:43:38.038Z,-1.31
2023-02-16T07:46:08.457Z,-1.37
2023-02-16T07:48:35.693Z,-1.28
2023-02-16T07:51:04.985Z,-1.10
2023-02-16T07:53:31.686Z,-1.01
2023-02-16T07:56:00.144Z,-0.80
2023-02-16T07:58:29.611Z,-0.54
2023-02-16T08:01:10.054Z,-0.31
2023-02-16T08:03:37.257Z,-0.09
2023-02-16T08:06:04.736Z,-0.06
2023-02-16T08:08:32.343Z,0.11
2023-02-16T08:11:01.373Z,0.17
2023-02-16T08:13:27.893Z,0.24
2023-02-16T08:15:54.371Z,0.41
2023-02-16T08:18:22.613Z,0.57
2023-02-16T08:21:03.210Z,0.73
2023-02-16T08:23:37.700Z,0.91
2023-02-16T08:26:11.517Z,0.97
2023-02-16T08:28:38.303Z,1.04
2023-02-16T08:31:07.851Z,1.20
2023-02-16T08:33:34.830Z,1.45
2023-02-16T08:36:02.483Z,1.58
2023-02-16T08:38:38.815Z,1.59
2023-02-16T08:41:05.708Z,1.63
2023-02-16T08:43:32.553Z,1.73
2023-02-16T08:45:59.185Z,1.91
2023-02-16T08:48:28.819Z,2.02
2023-02-16T08:50:55.553Z,2.29
2023-02-16T08:53:23.325Z,2.50
2023-02-16T08:55:54.527Z,2.57
2023-02-16T08:58:21.964Z,2.79
2023-02-16T09:00:51.475Z,2.72
2023-02-16T09:03:19.172Z,2.69
2023-02-16T09:05:46.584Z,2.64
2023-02-16T09:08:16.087Z,2.70
2023-02-16T09:10:43.044Z,2.84
2023-02-16T09:13:14.979Z,3.00
2023-02-16T09:15:43.359Z,3.05
2023-02-16T09:18:12.564Z,3.25
2023-02-16T09:20:41.328Z,3.45
2023-02-16T09:23:12.379Z,3.34
2023-02-16T09:25:41.454Z,3.51
2023-02-16T09:28:10.859Z,3.72
2023-02-16T09:30:43.933Z,3.81
2023-02-16T09:33:10.969Z,4.13
2023-02-16T09:35:40.827Z,4.36
2023-02-16T09:38:08.018Z,4.54
2023-02-16T09:40:36.683Z,4.61
2023-02-16T09:43:08.656Z,4.72
2023-02-16T09:45:49.403Z,4.75
2023-02-16T09:48:44.678Z,4.92
2023-02-16T09:51:20.931Z,5.06
2023-02-16T09:53:56.705Z,5.28
2023-02-16T09:56:37.904Z,5.96
2023-02-16T09:59:16.506Z,6.84
2023-02-16T10:02:07.412Z,7.01
2023-02-16T10:04:46.312Z,7.55
2023-02-16T10:07:24.636Z,7.74
2023-02-16T10:09:58.396Z,7.37
2023-02-16T10:12:29.978Z,7.20
2023-02-16T10:15:09.471Z,6.93
2023-02-16T10:17:35.892Z,6.48
2023-02-16T10:20:12.008Z,6.13
2023-02-16T10:22:51.461Z,5.79
2023-02-16T10:25:58.357Z,5.92
2023-02-16T10:28:46.483Z,6.05
2023-02-16T10:31:32.551Z,6.00
2023-02-16T10:34:23.899Z,5.98
2023-02-16T10:37:14.830Z,5.98
2023-02-16T10:40:12.223Z,6.18
2023-02-16T10:42:46.309Z,6.37
2023-02-16T10:45:31.971Z,6.36
2023-02-16T10:48:00.800Z,6.36
2023-02-16T10:50:39.033Z,6.43
2023-02-16T10:53:44.462Z,6.59
2023-02-16T10:56:38.252Z,6.70
2023-02-16T10:59:12.469Z,6.75
2023-02-16T11:01:44.171Z,6.90
2023-02-16T11:04:39.465Z,7.00
2023-02-16T11:07:12.036Z,7.16
2023-02-16T11:09:43.533Z,7.24
2023-02-16T11:12:24.372Z,7.40
2023-02-16T11:14:57.577Z,7.34
2023-02-16T11:17:25.553Z,7.32
2023-02-16T11:19:56.801Z,7.46
2023-02-16T11:22:40.780Z,7.57
2023-02-16T11:25:23.508Z,7.78
2023-02-16T11:27:57.866Z,8.05
2023-02-16T11:30:32.758Z,8.16
2023-02-16T11:33:05.763Z,8.25
2023-02-16T11:35:42.274Z,8.27
2023-02-16T11:38:26.217Z,8.41
2023-02-16T11:40:57.447Z,8.64
2023-02-16T11:43:28.622Z,8.73
2023-02-16T11:46:16.832Z,8.91
2023-02-16T11:48:44.377Z,9.19
2023-02-16T11:51:15.622Z,9.38
2023-02-16T11:53:44.386Z,9.49
2023-02-16T11:56:24.679Z,9.75
2023-02-16T11:59:03.389Z,9.87
2023-02-16T12:01:50.114Z,10.00
2023-02-16T12:04:44.896Z,10.21
2023-02-16T12:07:22.101Z,10.41
2023-02-16T12:09:57.225Z,10.56
2023-02-16T12:12:36.317Z,10.78
2023-02-16T12:15:12.950Z,11.06
2023-02-16T12:17:43.448Z,11.16
2023-02-16T12:20:30.989Z,11.17
2023-02-16T12:23:11.013Z,11.24
2023-02-16T12:25:42.420Z,11.29
2023-02-16T12:28:18.692Z,11.42
2023-02-16T12:31:07.330Z,11.59
2023-02-16T12:33:49.864Z,11.74
2023-02-16T12:36:47.019Z,11.92
2023-02-16T12:39:29.375Z,12.20
2023-02-16T12:42:24.263Z,12.37
2023-02-16T12:44:55.161Z,12.56
2023-02-16T12:47:29.994Z,12.75
2023-02-16T12:50:02.008Z,12.81
2023-02-16T12:52:41.784Z,12.73
2023-02-16T12:55:36.314Z,12.68
2023-02-16T12:58:22.436Z,12.69
2023-02-16T13:01:00.446Z,12.72
2023-02-16T13:03:51.631Z,12.76
2023-02-16T13:06:48.960Z,12.83
2023-02-16T13:09:44.146Z,13.02
2023-02-16T13:12:45.072Z,12.97
2023-02-16T13:15:35.832Z,13.19
2023-02-16T13:18:07.516Z,13.46
2023-02-16T13:20:34.143Z,13.70
2023-02-16T13:23:27.768Z,13.70
2023-02-16T13:26:22.444Z,13.73
2023-02-16T13:32:47.308Z,14.02
2023-02-16T13:35:30.265Z,14.07
2023-02-16T13:38:04.591Z,14.27
2023-02-16T13:40:57.167Z,14.04
2023-02-16T13:43:30.989Z,14.08
2023-02-16T13:45:59.492Z,14.17
2023-02-16T13:48:31.795Z,14.35
2023-02-16T13:51:05.204Z,14.40
2023-02-16T13:53:43.510Z,14.45
2023-02-16T13:56:31.134Z,14.34
2023-02-16T13:59:17.496Z,14.42
2023-02-16T14:01:47.403Z,14.45
2023-02-16T14:04:35.575Z,14.33
2023-02-16T14:07:02.035Z,14.36
2023-02-16T14:09:37.788Z,14.17
2023-02-16T14:12:14.313Z,13.85
2023-02-16T14:14:43.612Z,13.92
2023-02-16T14:17:22.402Z,13.83
2023-02-16T14:20:00.415Z,13.77
2023-02-16T14:22:53.308Z,13.72
2023-02-16T14:25:19.862Z,13.77
2023-02-16T14:27:49.944Z,13.78
2023-02-16T14:30:38.991Z,13.80
2023-02-16T14:33:18.088Z,13.92
2023-02-16T14:36:03.052Z,14.07
2023-02-16T14:38:38.123Z,14.11
2023-02-16T14:41:11.364Z,14.12
2023-02-16T14:43:45.743Z,14.12
2023-02-16T14:46:30.969Z,14.18
2023-02-16T14:49:38.071Z,14.07
2023-02-16T14:52:06.286Z,14.16
2023-02-16T14:55:11.362Z,14.12
2023-02-16T14:57:52.439Z,14.13
2023-02-16T15:00:30.626Z,14.10
2023-02-16T15:03:23.460Z,13.96
2023-02-16T15:05:57.280Z,13.84
2023-02-16T15:08:36.880Z,13.66
2023-02-16T15:11:16.132Z,13.50
2023-02-16T15:13:46.480Z,13.43
2023-02-16T15:16:16.417Z,13.30
2023-02-16T15:18:54.500Z,13.19
2023-02-16T15:21:25.035Z,13.07
2023-02-16T15:23:54.501Z,12.98
2023-02-16T15:26:25.177Z,12.90
2023-02-16T15:28:58.068Z,12.88
2023-02-16T15:31:33.430Z,12.84
2023-02-16T15:34:05.742Z,12.83
2023-02-16T15:36:38.467Z,12.75
2023-02-16T15:39:11.752Z,12.69
2023-02-16T15:41:43.798Z,12.65
2023-02-16T15:44:37.086Z,12.53
2023-02-16T15:47:08.272Z,12.45
2023-02-16T15:49:38.990Z,12.39
2023-02-16T15:52:16.468Z,12.32
2023-02-16T15:54:44.925Z,12.21
2023-02-16T15:57:32.517Z,12.12
2023-02-16T16:00:19.573Z,12.00
2023-02-16T16:02:52.964Z,11.91
2023-02-16T16:05:25.674Z,11.80
2023-02-16T16:07:53.098Z,11.68
2023-02-16T16:10:33.935Z,11.56
2023-02-16T16:13:06.307Z,11.44
2023-02-16T16:15:41.729Z,11.33
2023-02-16T16:18:46.624Z,11.18
2023-02-16T16:21:24.609Z,11.10
2023-02-16T16:24:03.628Z,10.99
2023-02-16T16:26:35.485Z,10.88
2023-02-16T16:29:05.677Z,10.80
2023-02-16T16:31:35.032Z,10.70
2023-02-16T16:34:04.720Z,10.57
2023-02-16T16:36:34.666Z,10.44
2023-02-16T16:39:18.606Z,10.32
2023-02-16T16:42:07.969Z,10.26
2023-02-16T16:44:45.605Z,10.20
2023-02-16T16:47:23.971Z,10.14
2023-02-16T16:49:52.441Z,10.09
2023-02-16T16:52:36.075Z,10.00
2023-02-16T16:55:20.372Z,9.91
2023-02-16T16:57:48.478Z,9.84
2023-02-16T17:00:16.220Z,9.76
2023-02-16T17:02:45.323Z,9.67
2023-02-16T17:05:12.208Z,9.58
2023-02-16T17:07:38.738Z,9.51
2023-02-16T17:10:12.153Z,9.44
2023-02-16T17:12:38.661Z,9.40
2023-02-16T17:15:08.027Z,9.36
2023-02-16T17:17:36.597Z,9.28
2023-02-16T17:20:03.515Z,9.21
2023-02-16T17:22:32.745Z,9.15
2023-02-16T17:24:59.430Z,9.05
2023-02-16T17:27:25.922Z,9.01
2023-02-16T17:29:52.640Z,8.94
2023-02-16T17:32:24.344Z,8.89
2023-02-16T17:34:50.807Z,8.83
2023-02-16T17:37:19.546Z,8.75
2023-02-16T17:39:46.294Z,8.69
2023-02-16T17:42:13.039Z,8.64
2023-02-16T17:44:39.506Z,8.58
2023-02-16T17:47:07.794Z,8.53
2023-02-16T17:49:34.297Z,8.50
2023-02-16T17:52:00.832Z,8.45
2023-02-16T17:54:33.994Z,8.40
2023-02-16T17:57:00.497Z,8.35
2023-02-16T17:59:29.258Z,8.30
2023-02-16T18:02:05.858Z,8.23
2023-02-16T18:04:33.039Z,8.18
2023-02-16T18:06:59.679Z,8.13
2023-02-16T18:09:26.252Z,8.07
2023-02-16T18:11:52.846Z,8.05
2023-02-16T18:14:19.378Z,8.07
2023-02-16T18:16:53.401Z,8.08
2023-02-16T18:19:20.206Z,8.02
2023-02-16T18:21:46.704Z,7.96
2023-02-16T18:24:13.252Z,7.91
2023-02-16T18:26:39.786Z,7.88
2023-02-16T18:32:01.249Z,7.82
2023-02-16T18:34:27.856Z,7.79
2023-02-16T18:36:54.393Z,7.77
2023-02-16T18:39:20.992Z,7.74
2023-02-16T18:41:47.460Z,7.73
2023-02-16T18:44:14.171Z,7.71
2023-02-16T18:46:40.843Z,7.69
2023-02-16T18:49:07.383Z,7.67
2023-02-16T18:51:33.903Z,7.65
2023-02-16T18:54:00.464Z,7.64
2023-02-16T18:56:27.763Z,7.64
2023-02-16T18:58:54.510Z,7.60
2023-02-16T19:01:28.817Z,7.58
2023-02-16T19:03:56.165Z,7.55
2023-02-16T19:06:22.869Z,7.52
2023-02-16T19:08:54.145Z,7.49
2023-02-16T19:11:21.250Z,7.47
2023-02-16T19:13:48.445Z,7.44
2023-02-16T19:16:16.231Z,7.40
2023-02-16T19:18:42.868Z,7.38
2023-02-16T19:21:13.803Z,7.35
2023-02-16T19:23:42.618Z,7.33
2023-02-16T19:26:12.978Z,7.31
2023-02-16T19:28:39.967Z,7.31
2023-02-16T19:31:09.368Z,7.28
2023-02-16T19:33:36.310Z,7.29
2023-02-16T19:36:07.670Z,7.27
2023-02-16T19:38:34.592Z,7.25
2023-02-16T19:41:01.115Z,7.23
2023-02-16T19:43:27.594Z,7.23
2023-02-16T19:45:59.420Z,7.23
2023-02-16T19:48:25.969Z,7.27
2023-02-16T19:50:57.672Z,7.25
2023-02-16T19:53:30.391Z,7.28
2023-02-16T19:55:57.350Z,7.25
2023-02-16T19:58:25.614Z,7.21
2023-02-16T20:00:52.746Z,7.17
2023-02-16T20:03:21.457Z,7.14
2023-02-16T20:05:48.078Z,7.11
2023-02-16T20:08:14.654Z,7.11
2023-02-16T20:10:47.875Z,7.13
2023-02-16T20:13:14.312Z,7.11
2023-02-16T20:15:46.702Z,7.09
2023-02-16T20:18:20.133Z,7.04
2023-02-16T20:20:59.219Z,7.00
2023-02-16T20:23:26.962Z,6.99
2023-02-16T20:25:54.032Z,6.98
2023-02-16T20:28:24.548Z,6.93
2023-02-16T20:30:52.628Z,6.89
2023-02-16T20:33:20.456Z,6.87
2023-02-16T20:35:49.500Z,6.83
2023-02-16T20:38:16.864Z,6.82
2023-02-16T20:40:44.003Z,6.80
2023-02-16T20:43:11.736Z,6.78
2023-02-16T20:45:42.948Z,6.78
2023-02-16T20:48:12.227Z,6.75
2023-02-16T20:50:38.845Z,6.73
2023-02-16T20:53:05.968Z,6.70
2023-02-16T20:55:32.842Z,6.69
2023-02-16T20:58:00.368Z,6.67
2023-02-16T21:00:27.841Z,6.67
2023-02-16T21:02:54.492Z,6.65
2023-02-16T21:05:22.817Z,6.64
2023-02-16T21:07:50.104Z,6.65
2023-02-16T21:10:16.877Z,6.62
2023-02-16T21:12:45.431Z,6.63
2023-02-16T21:15:12.614Z,6.64
2023-02-16T21:17:41.190Z,6.58
2023-02-16T21:20:08.362Z,6.54
2023-02-16T21:22:35.011Z,6.50
2023-02-16T21:25:10.176Z,6.48
2023-02-16T21:27:37.068Z,6.43
2023-02-16T21:30:05.522Z,6.41
2023-02-16T21:32:32.179Z,6.41
2023-02-16T21:34:58.752Z,6.40
2023-02-16T21:37:27.251Z,6.37
2023-02-16T21:40:12.449Z,6.34
2023-02-16T21:42:40.938Z,6.29
2023-02-16T21:45:14.116Z,6.27
2023-02-16T21:48:01.140Z,6.23
2023-02-16T21:50:29.362Z,6.16
2023-02-16T21:52:55.909Z,6.10
2023-02-16T21:55:43.400Z,6.07
2023-02-16T21:58:10.842Z,6.02
2023-02-16T22:00:41.290Z,6.05
2023-02-16T22:03:11.367Z,6.07
2023-02-16T22:05:38.270Z,6.00
2023-02-16T22:08:05.148Z,5.98
2023-02-16T22:10:31.791Z,5.96
2023-02-16T22:13:00.432Z,5.93
2023-02-16T22:15:27.344Z,5.90
2023-02-16T22:17:55.736Z,5.84
2023-02-16T22:20:22.559Z,5.82
2023-02-16T22:22:52.400Z,5.80
2023-02-16T22:25:19.551Z,5.79
2023-02-16T22:27:46.094Z,5.76
2023-02-16T22:30:12.855Z,5.73
2023-02-16T22:32:41.147Z,5.76
2023-02-16T22:35:07.909Z,5.81
2023-02-16T22:37:34.876Z,5.81
2023-02-16T22:40:07.238Z,5.85
2023-02-16T22:42:33.812Z,5.84
2023-02-16T22:45:00.286Z,5.82
2023-02-16T22:47:31.391Z,5.82
2023-02-16T22:49:57.880Z,5.79
2023-02-16T22:52:24.361Z,5.76
2023-02-16T22:54:53.483Z,5.75
2023-02-16T22:57:19.991Z,5.74
2023-02-16T22:59:46.475Z,5.76
2023-02-16T23:02:13.195Z,5.77
2023-02-16T23:04:41.245Z,5.77
2023-02-16T23:07:09.508Z,5.79
2023-02-16T23:09:43.692Z,5.80
2023-02-16T23:12:10.681Z,5.80
2023-02-16T23:14:38.113Z,5.81
2023-02-16T23:17:06.391Z,5.82
2023-02-16T23:19:33.421Z,5.83
2023-02-16T23:22:00.143Z,5.85
2023-02-16T23:24:27.064Z,5.85
2023-02-16T23:26:54.525Z,5.84
2023-02-16T23:29:21.437Z,5.84
2023-02-16T23:31:50.359Z,5.84
2023-02-16T23:34:19.293Z,5.82
2023-02-16T23:36:45.935Z,5.81
2023-02-16T23:39:18.338Z,5.80
2023-02-16T23:41:45.389Z,5.79
2023-02-16T23:44:14.495Z,5.80
2023-02-16T23:46:42.815Z,5.80
2023-02-16T23:49:09.425Z,5.80
2023-02-16T23:51:35.919Z,5.80
2023-02-16T23:54:09.031Z,5.81
2023-02-16T23:56:35.517Z,5.83
2023-02-16T23:59:02.168Z,5.84
